sensor_id;sensor_type;location;lat;lon;timestamp;temperature;humidity
81031;SHT31;70513;51.984;5.648;2023-06-14T00:00:10;21.4;39.3
81031;SHT31;70513;51.984;5.648;2023-06-14T00:02:39;21.4;39.1
81031;SHT31;70513;51.984;5.648;2023-06-14T00:05:10;21.4;39.0
81031;SHT31;70513;51.984;5.648;2023-06-14T00:07:42;21.4;39.5
81031;SHT31;70513;51.984;5.648;2023-06-14T00:10:12;21.3;40.1
81031;SHT31;70513;51.984;5.648;2023-06-14T00:12:41;21.3;40.2
81031;SHT31;70513;51.984;5.648;2023-06-14T00:15:11;21.3;40.1
81031;SHT31;70513;51.984;5.648;2023-06-14T00:17:40;21.3;40.5
81031;SHT31;70513;51.984;5.648;2023-06-14T00:20:10;21.3;39.9
81031;SHT31;70513;51.984;5.648;2023-06-14T00:22:40;21.3;40.2
81031;SHT31;70513;51.984;5.648;2023-06-14T00:25:11;21.2;40.2
81031;SHT31;70513;51.984;5.648;2023-06-14T00:27:40;21.2;40.4
81031;SHT31;70513;51.984;5.648;2023-06-14T00:30:09;21.2;41.2
81031;SHT31;70513;51.984;5.648;2023-06-14T00:32:40;21.2;40.3
81031;SHT31;70513;51.984;5.648;2023-06-14T00:35:09;21.2;40.9
81031;SHT31;70513;51.984;5.648;2023-06-14T00:37:38;21.2;40.9
81031;SHT31;70513;51.984;5.648;2023-06-14T00:40:08;21.1;40.7
81031;SHT31;70513;51.984;5.648;2023-06-14T00:42:37;21.1;41.5
81031;SHT31;70513;51.984;5.648;2023-06-14T00:45:07;21.1;41.0
81031;SHT31;70513;51.984;5.648;2023-06-14T00:47:38;21.1;41.8
81031;SHT31;70513;51.984;5.648;2023-06-14T00:50:09;21.0;41.4
81031;SHT31;70513;51.984;5.648;2023-06-14T00:52:39;21.0;41.4
81031;SHT31;70513;51.984;5.648;2023-06-14T00:55:09;21.0;40.6
81031;SHT31;70513;51.984;5.648;2023-06-14T00:57:38;21.0;41.3
81031;SHT31;70513;51.984;5.648;2023-06-14T01:00:09;20.9;41.4
81031;SHT31;70513;51.984;5.648;2023-06-14T01:02:38;20.9;41.5
81031;SHT31;70513;51.984;5.648;2023-06-14T01:05:09;20.9;41.2
81031;SHT31;70513;51.984;5.648;2023-06-14T01:07:50;20.8;41.5
81031;SHT31;70513;51.984;5.648;2023-06-14T01:10:31;20.8;41.4
81031;SHT31;70513;51.984;5.648;2023-06-14T01:13:08;20.8;42.1
81031;SHT31;70513;51.984;5.648;2023-06-14T01:15:41;20.8;42.0
81031;SHT31;70513;51.984;5.648;2023-06-14T01:18:11;20.7;42.3
81031;SHT31;70513;51.984;5.648;2023-06-14T01:20:45;20.7;42.2
81031;SHT31;70513;51.984;5.648;2023-06-14T01:23:16;20.7;42.2
81031;SHT31;70513;51.984;5.648;2023-06-14T01:25:45;20.7;42.5
81031;SHT31;70513;51.984;5.648;2023-06-14T01:28:21;20.6;41.7
81031;SHT31;70513;51.984;5.648;2023-06-14T01:30:52;20.6;42.3
81031;SHT31;70513;51.984;5.648;2023-06-14T01:33:23;20.6;42.3
81031;SHT31;70513;51.984;5.648;2023-06-14T01:35:55;20.6;42.0
81031;SHT31;70513;51.984;5.648;2023-06-14T01:38:26;20.5;42.5
81031;SHT31;70513;51.984;5.648;2023-06-14T01:40:58;20.5;42.5
81031;SHT31;70513;51.984;5.648;2023-06-14T01:43:31;20.5;42.5
81031;SHT31;70513;51.984;5.648;2023-06-14T01:46:00;20.5;42.4
81031;SHT31;70513;51.984;5.648;2023-06-14T01:48:29;20.4;43.0
81031;SHT31;70513;51.984;5.648;2023-06-14T01:50:58;20.4;43.2
81031;SHT31;70513;51.984;5.648;2023-06-14T01:53:26;20.4;42.7
81031;SHT31;70513;51.984;5.648;2023-06-14T01:55:55;20.3;43.1
81031;SHT31;70513;51.984;5.648;2023-06-14T01:58:24;20.3;42.6
81031;SHT31;70513;51.984;5.648;2023-06-14T02:00:53;20.3;42.8
81031;SHT31;70513;51.984;5.648;2023-06-14T02:03:24;20.2;43.4
81031;SHT31;70513;51.984;5.648;2023-06-14T02:05:53;20.2;43.3
81031;SHT31;70513;51.984;5.648;2023-06-14T02:08:22;20.2;43.1
81031;SHT31;70513;51.984;5.648;2023-06-14T02:10:51;20.1;43.4
81031;SHT31;70513;51.984;5.648;2023-06-14T02:13:20;20.1;43.1
81031;SHT31;70513;51.984;5.648;2023-06-14T02:15:49;20.1;43.8
81031;SHT31;70513;51.984;5.648;2023-06-14T02:18:21;20.0;43.5
81031;SHT31;70513;51.984;5.648;2023-06-14T02:20:49;20.0;43.7
81031;SHT31;70513;51.984;5.648;2023-06-14T02:23:18;20.0;43.7
81031;SHT31;70513;51.984;5.648;2023-06-14T02:25:47;19.9;43.8
81031;SHT31;70513;51.984;5.648;2023-06-14T02:28:15;19.9;44.3
81031;SHT31;70513;51.984;5.648;2023-06-14T02:30:44;19.8;44.9
81031;SHT31;70513;51.984;5.648;2023-06-14T02:33:12;19.8;44.5
81031;SHT31;70513;51.984;5.648;2023-06-14T02:35:41;19.8;44.7
81031;SHT31;70513;51.984;5.648;2023-06-14T02:38:11;19.7;44.6
81031;SHT31;70513;51.984;5.648;2023-06-14T02:40:39;19.7;44.4
81031;SHT31;70513;51.984;5.648;2023-06-14T02:43:09;19.6;44.6
81031;SHT31;70513;51.984;5.648;2023-06-14T02:45:40;19.6;44.6
81031;SHT31;70513;51.984;5.648;2023-06-14T02:48:09;19.6;44.8
81031;SHT31;70513;51.984;5.648;2023-06-14T02:50:38;19.5;45.0
81031;SHT31;70513;51.984;5.648;2023-06-14T02:53:07;19.5;45.0
81031;SHT31;70513;51.984;5.648;2023-06-14T02:55:38;19.5;45.2
81031;SHT31;70513;51.984;5.648;2023-06-14T02:58:07;19.4;45.0
81031;SHT31;70513;51.984;5.648;2023-06-14T03:00:36;19.4;45.0
81031;SHT31;70513;51.984;5.648;2023-06-14T03:03:05;19.4;45.1
81031;SHT31;70513;51.984;5.648;2023-06-14T03:05:38;19.3;45.0
81031;SHT31;70513;51.984;5.648;2023-06-14T03:08:12;19.3;45.1
81031;SHT31;70513;51.984;5.648;2023-06-14T03:10:43;19.2;45.5
81031;SHT31;70513;51.984;5.648;2023-06-14T03:13:12;19.2;45.7
81031;SHT31;70513;51.984;5.648;2023-06-14T03:15:42;19.1;46.0
81031;SHT31;70513;51.984;5.648;2023-06-14T03:18:11;19.1;46.1
81031;SHT31;70513;51.984;5.648;2023-06-14T03:20:41;19.0;45.7
81031;SHT31;70513;51.984;5.648;2023-06-14T03:23:12;19.0;45.9
81031;SHT31;70513;51.984;5.648;2023-06-14T03:25:41;19.0;46.2
81031;SHT31;70513;51.984;5.648;2023-06-14T03:28:09;18.9;46.1
81031;SHT31;70513;51.984;5.648;2023-06-14T03:30:38;18.9;46.2
81031;SHT31;70513;51.984;5.648;2023-06-14T03:33:06;18.8;46.4
81031;SHT31;70513;51.984;5.648;2023-06-14T03:35:36;18.8;46.3
81031;SHT31;70513;51.984;5.648;2023-06-14T03:38:04;18.8;46.5
81031;SHT31;70513;51.984;5.648;2023-06-14T03:40:33;18.7;47.3
81031;SHT31;70513;51.984;5.648;2023-06-14T03:43:03;18.7;47.1
81031;SHT31;70513;51.984;5.648;2023-06-14T03:45:31;18.6;47.3
81031;SHT31;70513;51.984;5.648;2023-06-14T03:48:00;18.6;47.3
81031;SHT31;70513;51.984;5.648;2023-06-14T03:50:29;18.5;47.8
81031;SHT31;70513;51.984;5.648;2023-06-14T03:52:58;18.5;47.3
81031;SHT31;70513;51.984;5.648;2023-06-14T03:55:27;18.5;47.5
81031;SHT31;70513;51.984;5.648;2023-06-14T03:57:57;18.5;48.2
81031;SHT31;70513;51.984;5.648;2023-06-14T04:00:26;18.5;48.2
81031;SHT31;70513;51.984;5.648;2023-06-14T04:02:55;18.4;47.9
81031;SHT31;70513;51.984;5.648;2023-06-14T04:05:24;18.4;48.1
81031;SHT31;70513;51.984;5.648;2023-06-14T04:07:53;18.4;48.1
81031;SHT31;70513;51.984;5.648;2023-06-14T04:10:22;18.4;48.7
81031;SHT31;70513;51.984;5.648;2023-06-14T04:12:51;18.4;49.0
81031;SHT31;70513;51.984;5.648;2023-06-14T04:15:21;18.4;49.5
81031;SHT31;70513;51.984;5.648;2023-06-14T04:17:50;18.4;49.2
81031;SHT31;70513;51.984;5.648;2023-06-14T04:20:23;18.4;49.3
81031;SHT31;70513;51.984;5.648;2023-06-14T04:22:53;18.4;49.2
81031;SHT31;70513;51.984;5.648;2023-06-14T04:25:23;18.4;49.5
81031;SHT31;70513;51.984;5.648;2023-06-14T04:27:54;18.4;49.6
81031;SHT31;70513;51.984;5.648;2023-06-14T04:30:24;18.4;49.2
81031;SHT31;70513;51.984;5.648;2023-06-14T04:32:58;18.4;49.6
81031;SHT31;70513;51.984;5.648;2023-06-14T04:35:26;18.4;49.6
81031;SHT31;70513;51.984;5.648;2023-06-14T04:37:55;18.4;49.9
81031;SHT31;70513;51.984;5.648;2023-06-14T04:40:24;18.4;50.0
81031;SHT31;70513;51.984;5.648;2023-06-14T04:42:55;18.4;50.8
81031;SHT31;70513;51.984;5.648;2023-06-14T04:45:24;18.4;50.2
81031;SHT31;70513;51.984;5.648;2023-06-14T04:47:58;18.4;50.4
81031;SHT31;70513;51.984;5.648;2023-06-14T04:50:27;18.4;50.7
81031;SHT31;70513;51.984;5.648;2023-06-14T04:52:59;18.4;50.7
81031;SHT31;70513;51.984;5.648;2023-06-14T04:55:29;18.4;49.7
81031;SHT31;70513;51.984;5.648;2023-06-14T04:57:59;18.4;49.5
81031;SHT31;70513;51.984;5.648;2023-06-14T05:00:28;18.4;49.6
81031;SHT31;70513;51.984;5.648;2023-06-14T05:02:58;18.5;50.0
81031;SHT31;70513;51.984;5.648;2023-06-14T05:05:29;18.5;49.2
81031;SHT31;70513;51.984;5.648;2023-06-14T05:07:58;18.5;50.4
81031;SHT31;70513;51.984;5.648;2023-06-14T05:10:26;18.6;49.3
81031;SHT31;70513;51.984;5.648;2023-06-14T05:12:55;18.6;49.8
81031;SHT31;70513;51.984;5.648;2023-06-14T05:15:23;18.6;49.3
81031;SHT31;70513;51.984;5.648;2023-06-14T05:17:53;18.6;49.5
81031;SHT31;70513;51.984;5.648;2023-06-14T05:20:24;18.7;48.9
81031;SHT31;70513;51.984;5.648;2023-06-14T05:22:54;18.7;48.2
81031;SHT31;70513;51.984;5.648;2023-06-14T05:25:23;18.8;47.8
81031;SHT31;70513;51.984;5.648;2023-06-14T05:27:52;18.8;47.8
81031;SHT31;70513;51.984;5.648;2023-06-14T05:30:21;18.8;47.6
81031;SHT31;70513;51.984;5.648;2023-06-14T05:32:49;18.9;47.9
81031;SHT31;70513;51.984;5.648;2023-06-14T05:35:19;18.9;48.2
81031;SHT31;70513;51.984;5.648;2023-06-14T05:37:49;19.0;47.9
81031;SHT31;70513;51.984;5.648;2023-06-14T05:40:18;19.0;47.4
81031;SHT31;70513;51.984;5.648;2023-06-14T05:42:46;19.0;48.1
81031;SHT31;70513;51.984;5.648;2023-06-14T05:45:15;19.1;48.8
81031;SHT31;70513;51.984;5.648;2023-06-14T05:47:46;19.1;47.5
81031;SHT31;70513;51.984;5.648;2023-06-14T05:50:14;19.2;47.4
81031;SHT31;70513;51.984;5.648;2023-06-14T05:52:45;19.2;46.9
81031;SHT31;70513;51.984;5.648;2023-06-14T05:55:13;19.3;47.4
81031;SHT31;70513;51.984;5.648;2023-06-14T05:57:42;19.3;48.4
81031;SHT31;70513;51.984;5.648;2023-06-14T06:00:12;19.4;47.8
81031;SHT31;70513;51.984;5.648;2023-06-14T06:02:42;19.4;47.5
81031;SHT31;70513;51.984;5.648;2023-06-14T06:05:13;19.5;47.3
81031;SHT31;70513;51.984;5.648;2023-06-14T06:07:44;19.6;47.6
81031;SHT31;70513;51.984;5.648;2023-06-14T06:10:12;19.6;47.1
81031;SHT31;70513;51.984;5.648;2023-06-14T06:12:41;19.7;47.2
81031;SHT31;70513;51.984;5.648;2023-06-14T06:15:11;19.7;47.4
81031;SHT31;70513;51.984;5.648;2023-06-14T06:17:40;19.8;47.6
81031;SHT31;70513;51.984;5.648;2023-06-14T06:20:10;19.9;47.5
81031;SHT31;70513;51.984;5.648;2023-06-14T06:22:39;19.9;46.6
81031;SHT31;70513;51.984;5.648;2023-06-14T06:25:09;20.0;46.4
81031;SHT31;70513;51.984;5.648;2023-06-14T06:27:40;20.0;46.1
81031;SHT31;70513;51.984;5.648;2023-06-14T06:30:10;20.1;46.2
81031;SHT31;70513;51.984;5.648;2023-06-14T06:32:39;20.2;46.0
81031;SHT31;70513;51.984;5.648;2023-06-14T06:35:08;20.2;45.5
81031;SHT31;70513;51.984;5.648;2023-06-14T06:37:37;20.3;46.0
81031;SHT31;70513;51.984;5.648;2023-06-14T06:40:07;20.4;46.1
81031;SHT31;70513;51.984;5.648;2023-06-14T06:42:36;20.5;45.3
81031;SHT31;70513;51.984;5.648;2023-06-14T06:45:06;20.5;45.0
81031;SHT31;70513;51.984;5.648;2023-06-14T06:47:35;20.6;44.5
81031;SHT31;70513;51.984;5.648;2023-06-14T06:50:04;20.7;44.4
81031;SHT31;70513;51.984;5.648;2023-06-14T06:52:34;20.8;44.5
81031;SHT31;70513;51.984;5.648;2023-06-14T06:55:03;20.9;44.4
81031;SHT31;70513;51.984;5.648;2023-06-14T06:57:32;21.0;44.1
81031;SHT31;70513;51.984;5.648;2023-06-14T07:00:01;21.1;43.5
81031;SHT31;70513;51.984;5.648;2023-06-14T07:02:32;21.2;43.5
81031;SHT31;70513;51.984;5.648;2023-06-14T07:05:00;21.3;43.0
81031;SHT31;70513;51.984;5.648;2023-06-14T07:07:29;21.4;43.5
81031;SHT31;70513;51.984;5.648;2023-06-14T07:09:58;21.6;42.9
81031;SHT31;70513;51.984;5.648;2023-06-14T07:12:27;21.7;42.5
81031;SHT31;70513;51.984;5.648;2023-06-14T07:14:57;21.8;41.5
81031;SHT31;70513;51.984;5.648;2023-06-14T07:17:26;21.9;41.4
81031;SHT31;70513;51.984;5.648;2023-06-14T07:19:55;22.0;41.6
81031;SHT31;70513;51.984;5.648;2023-06-14T07:22:23;22.0;41.2
81031;SHT31;70513;51.984;5.648;2023-06-14T07:24:52;22.1;40.7
81031;SHT31;70513;51.984;5.648;2023-06-14T07:27:20;22.2;40.8
81031;SHT31;70513;51.984;5.648;2023-06-14T07:29:49;22.2;40.7
81031;SHT31;70513;51.984;5.648;2023-06-14T07:32:17;22.3;41.0
81031;SHT31;70513;51.984;5.648;2023-06-14T07:34:46;22.4;41.4
81031;SHT31;70513;51.984;5.648;2023-06-14T07:37:15;22.5;40.8
81031;SHT31;70513;51.984;5.648;2023-06-14T07:39:43;22.6;40.0
81031;SHT31;70513;51.984;5.648;2023-06-14T07:42:12;22.8;40.4
81031;SHT31;70513;51.984;5.648;2023-06-14T07:44:42;22.9;41.0
81031;SHT31;70513;51.984;5.648;2023-06-14T07:47:12;23.0;41.4
81031;SHT31;70513;51.984;5.648;2023-06-14T07:49:40;23.0;41.6
81031;SHT31;70513;51.984;5.648;2023-06-14T07:52:09;23.1;41.1
81031;SHT31;70513;51.984;5.648;2023-06-14T07:54:40;23.3;39.2
81031;SHT31;70513;51.984;5.648;2023-06-14T07:57:08;23.5;38.4
81031;SHT31;70513;51.984;5.648;2023-06-14T07:59:37;23.7;39.4
81031;SHT31;70513;51.984;5.648;2023-06-14T08:02:06;23.8;38.7
81031;SHT31;70513;51.984;5.648;2023-06-14T08:04:36;23.9;38.0
81031;SHT31;70513;51.984;5.648;2023-06-14T08:07:06;24.0;36.6
81031;SHT31;70513;51.984;5.648;2023-06-14T08:09:35;24.0;36.8
81031;SHT31;70513;51.984;5.648;2023-06-14T08:12:06;24.1;36.6
81031;SHT31;70513;51.984;5.648;2023-06-14T08:14:36;24.1;36.1
81031;SHT31;70513;51.984;5.648;2023-06-14T08:17:05;24.1;36.2
81031;SHT31;70513;51.984;5.648;2023-06-14T08:19:34;24.1;36.0
81031;SHT31;70513;51.984;5.648;2023-06-14T08:22:03;24.1;35.9
81031;SHT31;70513;51.984;5.648;2023-06-14T08:24:32;24.1;37.1
81031;SHT31;70513;51.984;5.648;2023-06-14T08:27:00;24.1;38.1
81031;SHT31;70513;51.984;5.648;2023-06-14T08:29:29;24.2;37.0
81031;SHT31;70513;51.984;5.648;2023-06-14T08:31:58;24.2;36.7
81031;SHT31;70513;51.984;5.648;2023-06-14T08:34:27;24.3;36.5
81031;SHT31;70513;51.984;5.648;2023-06-14T08:36:55;24.3;35.6
81031;SHT31;70513;51.984;5.648;2023-06-14T08:39:24;24.4;36.9
81031;SHT31;70513;51.984;5.648;2023-06-14T08:41:54;24.5;36.2
81031;SHT31;70513;51.984;5.648;2023-06-14T08:44:25;24.8;35.3
81031;SHT31;70513;51.984;5.648;2023-06-14T08:46:55;25.1;34.6
81031;SHT31;70513;51.984;5.648;2023-06-14T08:49:26;25.4;34.3
81031;SHT31;70513;51.984;5.648;2023-06-14T08:51:59;25.7;34.2
81031;SHT31;70513;51.984;5.648;2023-06-14T08:54:29;26.1;33.6
81031;SHT31;70513;51.984;5.648;2023-06-14T08:57:00;26.4;31.7
81031;SHT31;70513;51.984;5.648;2023-06-14T08:59:31;26.6;31.6
81031;SHT31;70513;51.984;5.648;2023-06-14T09:02:05;26.8;30.8
81031;SHT31;70513;51.984;5.648;2023-06-14T09:04:39;27.0;31.2
81031;SHT31;70513;51.984;5.648;2023-06-14T09:07:07;27.1;31.1
81031;SHT31;70513;51.984;5.648;2023-06-14T09:09:41;27.2;29.8
81031;SHT31;70513;51.984;5.648;2023-06-14T09:12:10;27.4;29.1
81031;SHT31;70513;51.984;5.648;2023-06-14T09:14:42;27.4;29.4
81031;SHT31;70513;51.984;5.648;2023-06-14T09:17:13;27.5;31.3
81031;SHT31;70513;51.984;5.648;2023-06-14T09:19:44;27.5;29.8
81031;SHT31;70513;51.984;5.648;2023-06-14T09:22:13;27.6;28.4
81031;SHT31;70513;51.984;5.648;2023-06-14T09:24:43;27.7;29.5
81031;SHT31;70513;51.984;5.648;2023-06-14T09:27:16;27.7;30.6
81031;SHT31;70513;51.984;5.648;2023-06-14T09:29:45;27.8;29.8
81031;SHT31;70513;51.984;5.648;2023-06-14T09:32:13;27.8;29.5
81031;SHT31;70513;51.984;5.648;2023-06-14T09:34:42;27.9;29.0
81031;SHT31;70513;51.984;5.648;2023-06-14T09:37:11;27.9;29.3
81031;SHT31;70513;51.984;5.648;2023-06-14T09:39:51;28.0;28.8
81031;SHT31;70513;51.984;5.648;2023-06-14T09:42:19;28.0;29.7
81031;SHT31;70513;51.984;5.648;2023-06-14T09:44:49;28.1;29.5
81031;SHT31;70513;51.984;5.648;2023-06-14T09:47:19;28.1;28.1
81031;SHT31;70513;51.984;5.648;2023-06-14T09:49:48;28.1;28.3
81031;SHT31;70513;51.984;5.648;2023-06-14T09:52:19;28.2;28.7
81031;SHT31;70513;51.984;5.648;2023-06-14T09:54:48;28.2;29.3
81031;SHT31;70513;51.984;5.648;2023-06-14T09:57:22;28.3;28.9
81031;SHT31;70513;51.984;5.648;2023-06-14T09:59:57;28.3;28.1
81031;SHT31;70513;51.984;5.648;2023-06-14T10:02:30;28.4;29.0
81031;SHT31;70513;51.984;5.648;2023-06-14T10:05:03;28.4;29.1
81031;SHT31;70513;51.984;5.648;2023-06-14T10:07:41;28.5;30.0
81031;SHT31;70513;51.984;5.648;2023-06-14T10:10:10;28.6;30.3
81031;SHT31;70513;51.984;5.648;2023-06-14T10:12:38;28.7;29.2
81031;SHT31;70513;51.984;5.648;2023-06-14T10:15:10;28.8;28.0
81031;SHT31;70513;51.984;5.648;2023-06-14T10:17:46;28.8;29.0
81031;SHT31;70513;51.984;5.648;2023-06-14T10:20:24;28.9;29.2
81031;SHT31;70513;51.984;5.648;2023-06-14T10:23:00;28.9;27.3
81031;SHT31;70513;51.984;5.648;2023-06-14T10:25:31;28.9;28.7
81031;SHT31;70513;51.984;5.648;2023-06-14T10:28:17;29.0;28.5
81031;SHT31;70513;51.984;5.648;2023-06-14T10:31:09;29.0;27.9
81031;SHT31;70513;51.984;5.648;2023-06-14T10:33:47;29.0;28.4
81031;SHT31;70513;51.984;5.648;2023-06-14T10:36:28;29.1;29.6
81031;SHT31;70513;51.984;5.648;2023-06-14T10:39:05;29.1;29.2
81031;SHT31;70513;51.984;5.648;2023-06-14T10:41:37;29.1;29.7
81031;SHT31;70513;51.984;5.648;2023-06-14T10:44:43;29.2;28.2
81031;SHT31;70513;51.984;5.648;2023-06-14T10:47:49;29.2;28.6
81031;SHT31;70513;51.984;5.648;2023-06-14T10:50:29;29.2;27.4
81031;SHT31;70513;51.984;5.648;2023-06-14T10:53:00;29.2;28.6
81031;SHT31;70513;51.984;5.648;2023-06-14T10:55:36;29.2;28.6
81031;SHT31;70513;51.984;5.648;2023-06-14T10:58:05;29.2;29.4
81031;SHT31;70513;51.984;5.648;2023-06-14T11:00:36;29.2;28.0
81031;SHT31;70513;51.984;5.648;2023-06-14T11:03:36;29.2;28.0
81031;SHT31;70513;51.984;5.648;2023-06-14T11:06:13;29.3;30.2
81031;SHT31;70513;51.984;5.648;2023-06-14T11:09:12;29.3;29.4
81031;SHT31;70513;51.984;5.648;2023-06-14T11:11:46;29.4;28.4
81031;SHT31;70513;51.984;5.648;2023-06-14T11:14:16;29.4;27.4
81031;SHT31;70513;51.984;5.648;2023-06-14T11:16:50;29.4;27.4
81031;SHT31;70513;51.984;5.648;2023-06-14T11:19:18;29.5;27.5
81031;SHT31;70513;51.984;5.648;2023-06-14T11:21:49;29.5;27.4
81031;SHT31;70513;51.984;5.648;2023-06-14T11:24:19;29.5;28.5
81031;SHT31;70513;51.984;5.648;2023-06-14T11:26:49;29.5;28.7
81031;SHT31;70513;51.984;5.648;2023-06-14T11:29:20;29.5;28.4
81031;SHT31;70513;51.984;5.648;2023-06-14T11:31:48;29.6;26.9
81031;SHT31;70513;51.984;5.648;2023-06-14T11:34:17;29.6;26.3
81031;SHT31;70513;51.984;5.648;2023-06-14T11:36:46;29.6;27.4
81031;SHT31;70513;51.984;5.648;2023-06-14T11:39:15;29.6;27.2
81031;SHT31;70513;51.984;5.648;2023-06-14T11:41:45;29.7;27.7
81031;SHT31;70513;51.984;5.648;2023-06-14T11:44:13;29.7;26.6
81031;SHT31;70513;51.984;5.648;2023-06-14T11:46:42;29.8;26.6
81031;SHT31;70513;51.984;5.648;2023-06-14T11:49:10;29.8;27.2
81031;SHT31;70513;51.984;5.648;2023-06-14T11:51:39;29.8;27.7
81031;SHT31;70513;51.984;5.648;2023-06-14T11:54:08;29.9;27.6
81031;SHT31;70513;51.984;5.648;2023-06-14T11:56:37;29.9;26.8
81031;SHT31;70513;51.984;5.648;2023-06-14T11:59:06;30.0;28.3
81031;SHT31;70513;51.984;5.648;2023-06-14T12:01:37;30.1;27.0
81031;SHT31;70513;51.984;5.648;2023-06-14T12:04:07;30.1;26.7
81031;SHT31;70513;51.984;5.648;2023-06-14T12:06:36;30.2;27.9
81031;SHT31;70513;51.984;5.648;2023-06-14T12:09:07;30.2;28.2
81031;SHT31;70513;51.984;5.648;2023-06-14T12:11:39;30.3;26.5
81031;SHT31;70513;51.984;5.648;2023-06-14T12:14:09;30.3;27.4
81031;SHT31;70513;51.984;5.648;2023-06-14T12:16:39;30.3;27.0
81031;SHT31;70513;51.984;5.648;2023-06-14T12:19:15;30.3;26.8
81031;SHT31;70513;51.984;5.648;2023-06-14T12:21:46;30.3;26.7
81031;SHT31;70513;51.984;5.648;2023-06-14T12:24:19;30.3;28.1
81031;SHT31;70513;51.984;5.648;2023-06-14T12:26:51;30.3;27.7
81031;SHT31;70513;51.984;5.648;2023-06-14T12:29:21;30.3;28.0
81031;SHT31;70513;51.984;5.648;2023-06-14T12:31:50;30.4;28.6
81031;SHT31;70513;51.984;5.648;2023-06-14T12:34:21;30.4;27.4
81031;SHT31;70513;51.984;5.648;2023-06-14T12:36:49;30.5;27.0
81031;SHT31;70513;51.984;5.648;2023-06-14T12:39:20;30.6;27.0
81031;SHT31;70513;51.984;5.648;2023-06-14T12:41:49;30.6;27.6
81031;SHT31;70513;51.984;5.648;2023-06-14T12:44:17;30.7;27.2
81031;SHT31;70513;51.984;5.648;2023-06-14T12:46:48;30.8;26.4
81031;SHT31;70513;51.984;5.648;2023-06-14T12:49:18;30.9;26.2
81031;SHT31;70513;51.984;5.648;2023-06-14T12:51:46;31.0;26.3
81031;SHT31;70513;51.984;5.648;2023-06-14T12:54:16;31.1;25.6
81031;SHT31;70513;51.984;5.648;2023-06-14T12:56:47;31.1;24.9
81031;SHT31;70513;51.984;5.648;2023-06-14T12:59:17;31.1;24.9
81031;SHT31;70513;51.984;5.648;2023-06-14T13:01:46;31.1;25.7
81031;SHT31;70513;51.984;5.648;2023-06-14T13:04:16;31.1;23.8
81031;SHT31;70513;51.984;5.648;2023-06-14T13:06:45;31.0;24.6
81031;SHT31;70513;51.984;5.648;2023-06-14T13:09:15;30.9;25.8
81031;SHT31;70513;51.984;5.648;2023-06-14T13:11:44;30.8;26.0
81031;SHT31;70513;51.984;5.648;2023-06-14T13:14:13;30.8;26.0
81031;SHT31;70513;51.984;5.648;2023-06-14T13:16:43;30.8;26.8
81031;SHT31;70513;51.984;5.648;2023-06-14T13:19:11;30.7;26.5
81031;SHT31;70513;51.984;5.648;2023-06-14T13:21:40;30.7;26.2
81031;SHT31;70513;51.984;5.648;2023-06-14T13:24:10;30.7;27.0
81031;SHT31;70513;51.984;5.648;2023-06-14T13:26:41;30.7;26.8
81031;SHT31;70513;51.984;5.648;2023-06-14T13:29:10;30.7;27.0
81031;SHT31;70513;51.984;5.648;2023-06-14T13:31:39;30.7;26.7
81031;SHT31;70513;51.984;5.648;2023-06-14T13:34:09;30.6;27.4
81031;SHT31;70513;51.984;5.648;2023-06-14T13:36:39;30.6;26.5
81031;SHT31;70513;51.984;5.648;2023-06-14T13:39:07;30.5;26.2
81031;SHT31;70513;51.984;5.648;2023-06-14T13:41:37;30.4;26.9
81031;SHT31;70513;51.984;5.648;2023-06-14T13:44:06;30.4;27.1
81031;SHT31;70513;51.984;5.648;2023-06-14T13:46:37;30.3;26.7
81031;SHT31;70513;51.984;5.648;2023-06-14T13:49:06;30.3;26.9
81031;SHT31;70513;51.984;5.648;2023-06-14T13:51:36;30.3;26.7
81031;SHT31;70513;51.984;5.648;2023-06-14T13:54:05;30.2;26.0
81031;SHT31;70513;51.984;5.648;2023-06-14T13:56:34;30.2;26.6
81031;SHT31;70513;51.984;5.648;2023-06-14T13:59:02;30.2;26.8
81031;SHT31;70513;51.984;5.648;2023-06-14T14:01:33;30.1;26.1
81031;SHT31;70513;51.984;5.648;2023-06-14T14:04:02;30.1;27.0
81031;SHT31;70513;51.984;5.648;2023-06-14T14:06:31;30.1;26.5
81031;SHT31;70513;51.984;5.648;2023-06-14T14:09:00;30.0;26.7
81031;SHT31;70513;51.984;5.648;2023-06-14T14:11:29;30.0;27.0
81031;SHT31;70513;51.984;5.648;2023-06-14T14:13:59;30.0;26.6
81031;SHT31;70513;51.984;5.648;2023-06-14T14:16:28;30.0;26.4
81031;SHT31;70513;51.984;5.648;2023-06-14T14:18:58;29.9;27.9
81031;SHT31;70513;51.984;5.648;2023-06-14T14:21:26;29.9;27.5
81031;SHT31;70513;51.984;5.648;2023-06-14T14:23:55;29.9;26.0
81031;SHT31;70513;51.984;5.648;2023-06-14T14:26:23;29.8;27.8
81031;SHT31;70513;51.984;5.648;2023-06-14T14:28:53;29.8;28.2
81031;SHT31;70513;51.984;5.648;2023-06-14T14:31:21;29.7;27.9
81031;SHT31;70513;51.984;5.648;2023-06-14T14:33:50;29.7;26.9
81031;SHT31;70513;51.984;5.648;2023-06-14T14:36:20;29.7;27.7
81031;SHT31;70513;51.984;5.648;2023-06-14T14:38:51;29.7;28.2
81031;SHT31;70513;51.984;5.648;2023-06-14T14:41:20;29.7;26.7
81031;SHT31;70513;51.984;5.648;2023-06-14T14:43:48;29.6;27.8
81031;SHT31;70513;51.984;5.648;2023-06-14T14:46:17;29.6;27.4
81031;SHT31;70513;51.984;5.648;2023-06-14T14:48:46;29.5;27.8
81031;SHT31;70513;51.984;5.648;2023-06-14T14:51:14;29.5;28.2
81031;SHT31;70513;51.984;5.648;2023-06-14T14:53:43;29.4;28.3
81031;SHT31;70513;51.984;5.648;2023-06-14T14:56:11;29.4;28.5
81031;SHT31;70513;51.984;5.648;2023-06-14T14:58:40;29.4;28.3
81031;SHT31;70513;51.984;5.648;2023-06-14T15:01:08;29.4;28.5
81031;SHT31;70513;51.984;5.648;2023-06-14T15:03:38;29.4;28.3
81031;SHT31;70513;51.984;5.648;2023-06-14T15:06:06;29.4;28.1
81031;SHT31;70513;51.984;5.648;2023-06-14T15:08:35;29.3;27.3
81031;SHT31;70513;51.984;5.648;2023-06-14T15:11:04;29.3;27.5
81031;SHT31;70513;51.984;5.648;2023-06-14T15:13:33;29.3;27.9
81031;SHT31;70513;51.984;5.648;2023-06-14T15:16:01;29.2;28.2
81031;SHT31;70513;51.984;5.648;2023-06-14T15:18:30;29.2;27.4
81031;SHT31;70513;51.984;5.648;2023-06-14T15:20:58;29.1;27.2
81031;SHT31;70513;51.984;5.648;2023-06-14T15:23:27;29.1;27.0
81031;SHT31;70513;51.984;5.648;2023-06-14T15:25:55;29.0;27.1
81031;SHT31;70513;51.984;5.648;2023-06-14T15:28:25;29.0;26.9
81031;SHT31;70513;51.984;5.648;2023-06-14T15:30:55;28.9;27.3
81031;SHT31;70513;51.984;5.648;2023-06-14T15:33:23;28.9;28.3
81031;SHT31;70513;51.984;5.648;2023-06-14T15:35:52;28.9;27.9
81031;SHT31;70513;51.984;5.648;2023-06-14T15:38:22;28.8;28.2
81031;SHT31;70513;51.984;5.648;2023-06-14T15:40:50;28.8;28.4
81031;SHT31;70513;51.984;5.648;2023-06-14T15:43:19;28.8;28.5
81031;SHT31;70513;51.984;5.648;2023-06-14T15:45:49;28.8;28.1
81031;SHT31;70513;51.984;5.648;2023-06-14T15:48:17;28.8;27.8
81031;SHT31;70513;51.984;5.648;2023-06-14T15:50:48;28.7;28.3
81031;SHT31;70513;51.984;5.648;2023-06-14T15:53:16;28.7;28.4
81031;SHT31;70513;51.984;5.648;2023-06-14T15:55:45;28.7;28.5
81031;SHT31;70513;51.984;5.648;2023-06-14T15:58:13;28.6;28.3
81031;SHT31;70513;51.984;5.648;2023-06-14T16:00:42;28.6;27.9
81031;SHT31;70513;51.984;5.648;2023-06-14T16:03:11;28.6;28.0
81031;SHT31;70513;51.984;5.648;2023-06-14T16:05:40;28.5;27.9
81031;SHT31;70513;51.984;5.648;2023-06-14T16:08:08;28.5;28.6
81031;SHT31;70513;51.984;5.648;2023-06-14T16:10:38;28.5;28.8
81031;SHT31;70513;51.984;5.648;2023-06-14T16:13:07;28.4;29.3
81031;SHT31;70513;51.984;5.648;2023-06-14T16:15:35;28.4;28.8
81031;SHT31;70513;51.984;5.648;2023-06-14T16:18:04;28.4;29.3
81031;SHT31;70513;51.984;5.648;2023-06-14T16:20:33;28.4;29.2